Toluca, Mexico

12:22 AM CDT on August 28, 2014 (GMT -0500)
colonia libertad | Change Station
CLOSE
Current Station
Personal Weather Station
Location: Santa Cruz Atizapán, ESTADO DE MéXICO
Elevation: 8465 ft
Nearby Weather Stations

Elev 8465 ft 19.19 °N, 99.50 °W | Updated 3 seconds ago

Mostly Cloudy
Mostly Cloudy
59.7 °F
Feels Like 59.7 °F
N
4.0
Wind Variable Wind from NNE
Gusts 4.9 mph

Today
High -- | Low -- °F
--% Chance of Precip.
Yesterday
High -- | Low -- °F
Precip. -- in
7:22 AM 7:56 PM
Waxing Crescent, 6% visible
Pressure 30.38 in
Visibility 10.0 miles
Clouds Mostly Cloudy 2000 ft
Mostly Cloudy 8000 ft
Dew Point 54 °F
Humidity 81%
Rainfall 0.00 in
Snow Depth Not available.
UV 0.0 out of 12
Pollen Not available.
Air Quality Not available.
Flu Activity Not available.
METAR MMMX 280442Z 36006KT 10SM BKN020 BKN080 18/11 A3038 NOSIG RMK 8/530 HZY

More Conditions Fewer Conditions

Pressure 30.38 in
Visibility 10.0 miles
Clouds Mostly Cloudy 2000 ft
Mostly Cloudy 8000 ft
Dew Point 54 °F
Humidity 81%
Rainfall 0.00 in
Snow Depth Not available.
UV 0.0 out of 12
Pollen Not available.
Air Quality Not available.
Flu Activity Not available.
METAR MMMX 280442Z 36006KT 10SM BKN020 BKN080 18/11 A3038 NOSIG RMK 8/530 HZY

More Conditions Fewer Conditions

10-Day Weather Forecast

Almanac

Astronomy

Aug. 28, 2014 Rise Set
Actual Time 7:22 AM CDT 7:56 PM CDT
Civil Twilight 7:00 AM CDT 8:19 PM CDT
Nautical Twilight 6:34 AM CDT 8:45 PM CDT
Astronomical Twilight 6:07 AM CDT 9:11 PM CDT
Moon 9:47 AM CDT 9:53 PM CDT
Length of Visible Light 13h 18m
Length of Day
12h 34m
Tomorrow will be 1m 2s shorter.
Waxing Crescent, 6% of the Moon is Illuminated
Today
Waxing Crescent
Sep 2
First Quarter
Sep 8
Full
Sep 15
Last Quarter
Sep 24
New

Yesterday's Extremes

Country Highs Country Lows

Community

WunderPhotos

Upload Photos

1,747,909 photos uploaded!

Nearby

Snow Depth

Not available.

Earthquake Activity

City Distance Mag. Time & Date
No recent earthquake activity has been reported nearby.
Minimum magnitude displayed is 2.5.

Coastal Water Temperatures

Place Temperature
No Stations Reporting

Nearby Weather Stations